Time;durP1;ratioP1;P1;durP2;ratioP2;P2;SDS_P1;SDS_P2;PMS_P1;PMS_P2;Temp;Humidity;BMP_temperature;BMP_pressure;BME280_temperature;BME280_humidity;BME280_pressure;Samples;Min_cycle;Max_cycle;Signal;HPM_P1;HPM_P2
2022/03/25 00:00:20;;;;;;;55.77;25.90;;;;;;;5.00;34.30;100812.63;124772;1099;104431;-78
2022/03/25 00:03:11;;;;;;;51.13;25.70;;;;;;;4.99;33.76;100803.05;123704;1099;104249;-78
2022/03/25 00:05:42;;;;;;;50.00;25.60;;;;;;;4.96;34.35;100805.46;123808;1099;104377;-79
2022/03/25 00:08:13;;;;;;;49.47;25.80;;;;;;;4.90;33.94;100807.67;124220;1099;104315;-79
2022/03/25 00:10:45;;;;;;;50.80;25.70;;;;;;;4.83;34.06;100802.08;123702;1099;104386;-78
2022/03/25 00:13:16;;;;;;;56.33;26.17;;;;;;;4.78;34.73;100794.78;124298;1099;104166;-79
2022/03/25 00:15:47;;;;;;;54.10;26.53;;;;;;;4.74;34.56;100788.50;124455;1099;104326;-79
2022/03/25 00:18:18;;;;;;;50.77;26.73;;;;;;;4.71;34.04;100787.41;124362;1099;104373;-79
2022/03/25 00:20:50;;;;;;;46.97;24.73;;;;;;;4.70;34.49;100777.80;124027;1099;104446;-78
2022/03/25 00:23:24;;;;;;;52.63;25.13;;;;;;;4.66;35.22;100780.20;124469;1099;104242;-79
2022/03/25 00:25:54;;;;;;;;;;;;;;;4.59;34.81;100780.61;124365;1099;104305;-78
2022/03/25 00:28:25;;;;;;;45.40;23.87;;;;;;;4.55;35.19;100772.52;124592;1098;104280;-79
2022/03/25 00:31:01;;;;;;;49.10;24.63;;;;;;;4.53;35.26;100776.72;124264;1099;104325;-79
2022/03/25 00:33:33;;;;;;;48.63;23.33;;;;;;;4.48;35.02;100768.63;124091;1099;104300;-79
2022/03/25 00:36:05;;;;;;;53.10;26.13;;;;;;;4.45;35.38;100771.92;124117;1099;104336;-78
2022/03/25 00:38:38;;;;;;;58.33;26.77;;;;;;;4.42;34.78;100763.03;123629;1099;104310;-79
2022/03/25 00:41:12;;;;;;;52.93;26.33;;;;;;;4.39;34.98;100770.63;123822;1099;104383;-79
2022/03/25 00:43:42;;;;;;;50.03;25.70;;;;;;;4.37;36.01;100759.25;123969;1099;104383;-79
2022/03/25 00:46:13;;;;;;;52.17;25.90;;;;;;;4.33;35.06;100758.13;124635;1098;104299;-79
2022/03/25 00:48:45;;;;;;;57.50;28.83;;;;;;;4.32;35.79;100758.95;124276;1099;104380;-80
2022/03/25 00:51:16;;;;;;;52.97;26.53;;;;;;;4.30;35.38;100757.94;124099;1099;104508;-80
2022/03/25 00:53:46;;;;;;;48.87;26.23;;;;;;;4.25;36.28;100749.84;124398;1099;104280;-80
2022/03/25 00:56:16;;;;;;;52.80;26.13;;;;;;;4.23;36.71;100750.56;124121;1099;104322;-79
2022/03/25 00:58:47;;;;;;;53.53;26.20;;;;;;;4.20;35.99;100746.05;124545;1099;104354;-79
2022/03/25 01:01:18;;;;;;;51.40;24.03;;;;;;;4.17;36.69;100745.86;124632;1099;104303;-79
2022/03/25 01:03:49;;;;;;;53.80;25.90;;;;;;;4.17;36.48;100735.47;124715;1099;104340;-79
2022/03/25 01:06:21;;;;;;;53.45;24.05;;;;;;;4.19;37.00;100735.56;124719;1099;104373;-79
2022/03/25 01:08:50;;;;;;;45.47;23.23;;;;;;;4.19;36.72;100733.89;124253;1098;104248;-78
2022/03/25 01:11:23;;;;;;;45.60;24.07;;;;;;;4.18;35.96;100726.89;124032;1099;104373;-79
2022/03/25 01:13:56;;;;;;;48.43;24.03;;;;;;;4.18;37.43;100729.48;124121;1099;104303;-78
2022/03/25 01:16:26;;;;;;;48.40;23.97;;;;;;;4.15;36.89;100726.69;124265;1099;104393;-80
2022/03/25 01:18:59;;;;;;;45.73;22.93;;;;;;;4.14;36.58;100730.07;124335;1099;104374;-80
2022/03/25 01:21:30;;;;;;;46.20;23.23;;;;;;;4.12;36.78;100726.48;124175;1099;104380;-79
2022/03/25 01:24:04;;;;;;;44.13;22.57;;;;;;;4.08;37.41;100719.28;123882;1099;104239;-80
2022/03/25 01:26:35;;;;;;;45.87;22.50;;;;;;;4.05;37.52;100725.20;123755;1099;104357;-80
2022/03/25 01:29:06;;;;;;;44.10;21.40;;;;;;;4.01;38.17;100722.30;123854;1099;104332;-79
2022/03/25 01:31:36;;;;;;;45.33;22.13;;;;;;;4.01;37.36;100723.19;124239;1099;104492;-79
2022/03/25 01:34:06;;;;;;;42.45;21.30;;;;;;;3.96;37.59;100720.28;124276;1099;104242;-79
2022/03/25 01:36:37;;;;;;;42.40;21.53;;;;;;;3.93;37.89;100717.48;124306;1099;104252;-80
2022/03/25 01:39:08;;;;;;;40.20;20.30;;;;;;;3.92;37.47;100718.27;124041;1099;104258;-79
2022/03/25 01:41:38;;;;;;;42.40;21.20;;;;;;;3.90;38.21;100725.08;124480;1099;104434;-78
2022/03/25 01:44:11;;;;;;;45.00;21.17;;;;;;;3.88;38.35;100713.70;124025;1099;104720;-79
2022/03/25 01:46:44;;;;;;;44.40;21.15;;;;;;;3.88;37.56;100710.19;124223;1099;104294;-80
2022/03/25 01:49:15;;;;;;;47.70;20.87;;;;;;;3.88;38.45;100716.30;124043;1099;104695;-80
2022/03/25 01:51:47;;;;;;;43.80;20.60;;;;;;;3.89;38.03;100707.69;124084;1099;104306;-79
2022/03/25 01:54:22;;;;;;;39.87;19.73;;;;;;;3.92;37.80;100715.68;124589;1099;104222;-79
2022/03/25 01:56:55;;;;;;;42.13;20.07;;;;;;;3.95;37.75;100714.99;123965;1099;104351;-79
2022/03/25 01:59:26;;;;;;;40.93;19.37;;;;;;;3.95;38.14;100710.69;124249;1099;104432;-79
2022/03/25 02:01:56;;;;;;;43.73;20.27;;;;;;;3.99;37.77;100713.48;124367;1099;104469;-79
2022/03/25 02:04:27;;;;;;;40.73;18.80;;;;;;;4.00;37.57;100712.70;124197;1099;104376;-80
2022/03/25 02:06:56;;;;;;;41.07;20.23;;;;;;;4.02;37.69;100713.69;124518;1099;104243;-79
2022/03/25 02:09:29;;;;;;;37.97;19.27;;;;;;;4.02;37.93;100711.09;124319;1099;104239;-79
2022/03/25 02:12:04;;;;;;;40.77;19.10;;;;;;;4.01;38.78;100709.31;124234;1099;104938;-79
2022/03/25 02:14:32;;;;;;;39.47;18.57;;;;;;;4.00;38.31;100713.59;124366;1099;104232;-79
2022/03/25 02:17:04;;;;;;;36.77;18.10;;;;;;;4.02;38.09;100713.69;124269;1099;104348;-79
2022/03/25 02:19:37;;;;;;;37.03;17.87;;;;;;;4.01;38.05;100712.80;124059;1099;104336;-79
2022/03/25 02:22:08;;;;;;;38.40;18.23;;;;;;;4.01;39.05;100715.39;124338;1099;104498;-79
2022/03/25 02:24:38;;;;;;;39.53;18.60;;;;;;;4.02;38.65;100714.61;124021;1099;104765;-79
2022/03/25 02:27:11;;;;;;;43.33;19.87;;;;;;;4.02;38.30;100712.02;124130;1099;110941;-79
2022/03/25 02:29:43;;;;;;;39.03;17.57;;;;;;;4.03;38.44;100707.70;123832;1099;104264;-80
2022/03/25 02:32:14;;;;;;;38.67;18.60;;;;;;;4.04;38.72;100712.11;124228;1099;104364;-79
2022/03/25 02:34:44;;;;;;;36.87;18.10;;;;;;;4.03;39.00;100710.30;123980;1099;104347;-78
2022/03/25 02:37:17;;;;;;;37.63;18.07;;;;;;;4.02;38.96;100711.09;124014;1099;104204;-78
2022/03/25 02:39:46;;;;;;;37.37;18.13;;;;;;;3.98;39.31;100710.00;124158;1099;104342;-80
2022/03/25 02:42:17;;;;;;;37.67;18.90;;;;;;;3.96;39.38;100707.30;123836;1099;104248;-80
2022/03/25 02:44:48;;;;;;;41.27;18.00;;;;;;;3.95;38.79;100712.40;124043;1099;104441;-80
2022/03/25 02:47:20;;;;;;;37.90;18.47;;;;;;;3.93;38.60;100709.70;124181;1098;104331;-80
2022/03/25 02:49:51;;;;;;;38.67;18.90;;;;;;;3.93;39.42;100706.22;123812;1099;104297;-79
2022/03/25 02:52:22;;;;;;;37.27;18.27;;;;;;;3.92;40.00;100710.48;124357;1099;104830;-79
2022/03/25 02:54:53;;;;;;;39.37;18.80;;;;;;;3.90;39.05;100703.42;123838;1099;104322;-78
2022/03/25 02:57:26;;;;;;;40.53;19.07;;;;;;;3.89;39.51;100709.40;124265;1099;104299;-79
2022/03/25 02:59:57;;;;;;;40.53;19.07;;;;;;;3.86;39.91;100706.59;124267;1099;104692;-79
2022/03/25 03:02:29;;;;;;;39.13;18.23;;;;;;;3.84;39.26;100708.20;124085;1099;104808;-79
2022/03/25 03:05:03;;;;;;;38.83;18.60;;;;;;;3.81;39.36;100705.41;124528;1098;104273;-79
2022/03/25 03:07:34;;;;;;;36.60;17.48;;;;;;;3.80;39.75;100701.00;124637;1099;104187;-79
2022/03/25 03:10:06;;;;;;;38.37;18.57;;;;;;;3.75;40.24;100698.98;124333;1099;104770;-80
2022/03/25 03:12:38;;;;;;;39.67;19.37;;;;;;;3.76;40.63;100699.91;124059;1099;104358;-80
2022/03/25 03:15:10;;;;;;;39.77;18.70;;;;;;;3.74;40.24;100702.41;123925;1099;104322;-80
2022/03/25 03:17:40;;;;;;;37.33;17.77;;;;;;;3.71;39.46;100706.47;124052;1099;104373;-79
2022/03/25 03:20:12;;;;;;;37.60;17.77;;;;;;;3.71;40.13;100703.88;124137;1099;104361;-79
2022/03/25 03:22:44;;;;;;;39.00;19.00;;;;;;;3.71;40.21;100711.66;123954;1099;104355;-79
2022/03/25 03:25:16;;;;;;;41.30;18.77;;;;;;;3.71;41.00;100702.20;124647;1099;104380;-79
2022/03/25 03:27:48;;;;;;;37.83;17.17;;;;;;;3.73;40.67;100704.90;124024;1098;104456;-78
2022/03/25 03:30:18;;;;;;;35.55;17.40;;;;;;;3.75;40.60;100703.30;124184;1099;104236;-79
2022/03/25 03:32:55;;;;;;;32.57;16.53;;;;;;;3.78;40.14;100706.09;124621;1099;104249;-79
2022/03/25 03:35:27;;;;;;;33.10;17.57;;;;;;;3.83;40.09;100706.40;124167;1099;104333;-79
2022/03/25 03:38:01;;;;;;;34.53;16.27;;;;;;;3.85;40.98;100702.19;124024;1098;104338;-80
2022/03/25 03:40:29;;;;;;;;;;;;;;;3.85;40.33;100697.92;124243;1098;104392;-78
2022/03/25 03:43:03;;;;;;;38.07;17.30;;;;;;;3.85;40.46;100697.92;124283;1099;104242;-79
2022/03/25 03:45:34;;;;;;;33.60;16.60;;;;;;;3.86;40.71;100691.91;124058;1099;104261;-80
2022/03/25 03:48:05;;;;;;;39.17;18.53;;;;;;;3.89;41.01;100693.82;124540;1099;104293;-80
2022/03/25 03:50:35;;;;;;;36.50;17.83;;;;;;;3.92;40.84;100696.62;124108;1099;104424;-79
2022/03/25 03:53:05;;;;;;;38.03;18.40;;;;;;;3.94;40.84;100698.53;124386;1099;104641;-79
2022/03/25 03:55:39;;;;;;;38.10;18.65;;;;;;;3.96;41.91;100711.61;124179;1099;104322;-79
2022/03/25 03:58:09;;;;;;;36.85;17.25;;;;;;;3.93;40.51;100703.62;124490;1099;104367;-79
2022/03/25 04:00:43;;;;;;;43.07;17.87;;;;;;;3.90;41.44;100701.71;124715;1099;104387;-79
2022/03/25 04:03:16;;;;;;;36.73;16.50;;;;;;;3.87;42.29;100698.91;124102;1099;104249;-79
2022/03/25 04:05:46;;;;;;;36.90;16.70;;;;;;;3.86;42.14;100698.81;124659;1099;104261;-79
2022/03/25 04:08:17;;;;;;;38.87;16.87;;;;;;;3.84;41.40;100695.23;124622;1098;104354;-79
2022/03/25 04:10:46;;;;;;;32.87;16.00;;;;;;;3.87;42.61;100692.83;124486;1099;104322;-79
2022/03/25 04:13:18;;;;;;;34.53;16.03;;;;;;;3.88;41.84;100689.41;124489;1099;104462;-79
2022/03/25 04:15:48;;;;;;;35.50;15.87;;;;;;;3.93;41.99;100691.53;124415;1099;104246;-79
2022/03/25 04:18:19;;;;;;;35.60;16.63;;;;;;;3.94;42.36;100690.73;124292;1099;104274;-79
2022/03/25 04:20:52;;;;;;;35.83;15.10;;;;;;;3.96;42.74;100690.84;124554;1099;104277;-79
2022/03/25 04:23:22;;;;;;;35.13;16.87;;;;;;;4.02;42.97;100687.72;124193;1099;104300;-78
2022/03/25 04:25:52;;;;;;;35.70;14.93;;;;;;;4.07;41.79;100692.42;124060;1099;104360;-78
2022/03/25 04:28:22;;;;;;;33.97;15.27;;;;;;;4.14;42.59;100694.63;124707;1099;104306;-79
2022/03/25 04:30:53;;;;;;;34.80;14.63;;;;;;;4.20;42.93;100693.22;124577;1099;104239;-79
2022/03/25 04:33:25;;;;;;;32.00;14.90;;;;;;;4.26;43.25;100689.30;124645;1099;104492;-79
2022/03/25 04:35:56;;;;;;;33.53;14.57;;;;;;;4.31;42.75;100694.80;124758;1098;104297;-79
2022/03/25 04:38:27;;;;;;;34.63;14.27;;;;;;;4.35;42.48;100699.40;124729;1099;104380;-80
2022/03/25 04:40:58;;;;;;;31.67;14.43;;;;;;;4.37;42.71;100700.38;123672;1102;104281;-79
2022/03/25 04:43:27;;;;;;;27.73;14.10;;;;;;;4.41;43.00;100704.06;124426;1099;104341;-80
2022/03/25 04:45:58;;;;;;;35.53;16.70;;;;;;;4.47;42.91;100710.58;124068;1099;104306;-79
2022/03/25 04:48:29;;;;;;;38.53;18.37;;;;;;;4.47;44.27;100707.05;124719;1099;104296;-79
2022/03/25 04:51:01;;;;;;;35.03;16.23;;;;;;;4.43;43.69;100711.17;124529;1099;104351;-79
2022/03/25 04:53:34;;;;;;;35.37;17.00;;;;;;;4.37;43.48;100707.29;124497;1098;104297;-80
2022/03/25 04:56:04;;;;;;;34.33;16.43;;;;;;;4.33;44.56;100713.97;124371;1099;104303;-80
2022/03/25 04:58:36;;;;;;;34.80;17.30;;;;;;;4.31;43.73;100710.38;124501;1099;104374;-80
2022/03/25 05:01:10;;;;;;;37.30;18.17;;;;;;;4.34;44.04;100712.29;124660;1099;104379;-80
2022/03/25 05:03:39;;;;;;;37.47;18.20;;;;;;;4.34;44.24;100705.38;124557;1099;104336;-80
2022/03/25 05:06:11;;;;;;;35.87;17.97;;;;;;;4.41;43.62;100709.27;124325;1099;104422;-79
2022/03/25 05:08:42;;;;;;;36.75;18.30;;;;;;;4.46;43.69;100702.68;124527;1099;104374;-80
2022/03/25 05:11:21;;;;;;;34.17;16.70;;;;;;;4.49;43.09;100706.36;124543;1099;104264;-80
2022/03/25 05:14:00;;;;;;;40.40;17.47;;;;;;;4.55;44.29;100711.06;124737;1099;104370;-79
2022/03/25 05:16:44;;;;;;;34.67;16.70;;;;;;;4.59;43.61;100706.94;125983;1099;103717;-78
2022/03/25 05:19:19;;;;;;;32.20;15.93;;;;;;;4.63;44.03;100715.03;125003;1099;104543;-78
2022/03/25 05:21:53;;;;;;;32.17;15.43;;;;;;;4.68;44.03;100720.52;125049;1099;104213;-78
2022/03/25 05:24:26;;;;;;;35.77;15.80;;;;;;;4.72;43.74;100717.32;124686;1099;104479;-79
2022/03/25 05:27:01;;;;;;;34.20;16.47;;;;;;;4.78;43.40;100722.88;124641;1099;104428;-79
2022/03/25 05:29:35;;;;;;;35.30;15.90;;;;;;;4.87;43.68;100722.55;124513;1099;104432;-79
2022/03/25 05:32:22;;;;;;;35.33;16.25;;;;;;;4.87;44.00;100727.76;124670;1099;104436;-80
2022/03/25 05:34:55;;;;;;;31.67;15.17;;;;;;;4.86;44.00;100732.07;124809;1100;104223;-80
2022/03/25 05:37:25;;;;;;;33.53;16.07;;;;;;;4.91;44.37;100739.23;124598;1099;104718;-82
2022/03/25 05:39:59;;;;;;;40.43;15.97;;;;;;;4.94;44.32;100735.15;124744;1102;104255;-81
2022/03/25 05:42:34;;;;;;;32.85;14.93;;;;;;;4.96;44.88;100746.53;124966;1099;104300;-80
2022/03/25 05:45:11;;;;;;;34.97;15.23;;;;;;;5.00;46.65;100739.81;124377;1102;104377;-80
2022/03/25 05:48:06;;;;;;;38.30;17.23;;;;;;;5.03;46.67;100743.52;125157;1102;104351;-81
2022/03/25 05:50:43;;;;;;;34.97;15.47;;;;;;;5.07;45.81;100751.52;124955;1102;104152;-81
2022/03/25 05:53:34;;;;;;;33.88;14.98;;;;;;;5.08;46.91;100754.21;124667;1102;104420;-80
2022/03/25 05:56:13;;;;;;;29.10;14.83;;;;;;;5.10;46.69;100751.70;123622;1102;104415;-81
2022/03/25 05:58:43;;;;;;;31.70;15.10;;;;;;;5.14;46.84;100756.27;124252;1102;104303;-79
2022/03/25 06:01:13;;;;;;;30.13;14.67;;;;;;;5.21;46.91;100758.45;124359;1099;104297;-79
2022/03/25 06:03:44;;;;;;;31.43;14.13;;;;;;;5.25;47.37;100751.72;124316;1099;104245;-80
2022/03/25 06:06:15;;;;;;;28.30;14.20;;;;;;;5.33;47.82;100754.00;124419;1099;104296;-81
2022/03/25 06:08:47;;;;;;;32.17;15.97;;;;;;;5.39;48.21;100761.26;124185;1097;104253;-80
2022/03/25 06:11:17;;;;;;;32.33;16.03;;;;;;;5.41;47.94;100751.87;124594;1099;104242;-79
2022/03/25 06:13:50;;;;;;;28.73;13.83;;;;;;;5.50;47.56;100756.70;124201;1098;104348;-79
2022/03/25 06:16:21;;;;;;;32.90;15.10;;;;;;;5.59;47.32;100752.05;124115;1099;104309;-78
2022/03/25 06:18:52;;;;;;;31.10;15.40;;;;;;;5.70;47.22;100757.90;125129;1099;104296;-78
2022/03/25 06:21:27;;;;;;;30.40;14.87;;;;;;;5.82;47.10;100756.02;124405;1099;104360;-79
2022/03/25 06:26:43;;;;;;;29.03;14.83;;;;;;;6.01;48.47;100755.41;124683;1099;104322;-80
2022/03/25 06:29:16;;;;;;;27.30;13.83;;;;;;;6.10;46.94;100761.16;124989;1099;104149;-80
2022/03/25 06:31:47;;;;;;;29.50;13.77;;;;;;;6.17;47.46;100761.52;124706;1099;104742;-77
2022/03/25 06:34:20;;;;;;;29.30;15.43;;;;;;;6.25;48.28;100765.48;123573;1099;104732;-81
2022/03/25 06:36:51;;;;;;;37.47;15.90;;;;;;;6.29;47.45;100763.14;124271;1099;104329;-78
2022/03/25 06:39:23;;;;;;;29.83;15.27;;;;;;;6.37;48.23;100762.66;124170;1099;104264;-79
2022/03/25 06:41:53;;;;;;;34.20;16.07;;;;;;;6.43;48.53;100771.71;124072;1099;105534;-77
2022/03/25 06:44:25;;;;;;;30.70;15.33;;;;;;;6.46;48.51;100778.82;124420;1099;104341;-77
2022/03/25 06:46:59;;;;;;;32.63;15.80;;;;;;;6.48;48.56;100782.40;123788;1099;104306;-78
2022/03/25 06:49:34;;;;;;;37.87;18.47;;;;;;;6.45;48.63;100800.47;125373;1099;104424;-78
2022/03/25 06:52:14;;;;;;;36.23;18.80;;;;;;;6.40;49.55;100800.21;124646;1099;104354;-80
2022/03/25 06:54:49;;;;;;;35.40;18.57;;;;;;;6.25;51.18;100805.46;124962;1098;104376;-79
2022/03/25 06:57:20;;;;;;;38.90;20.17;;;;;;;6.13;50.54;100809.95;124855;1099;104242;-78
2022/03/25 06:59:56;;;;;;;35.17;18.27;;;;;;;6.01;51.52;100812.73;124000;1099;104325;-78
2022/03/25 07:02:27;;;;;;;33.53;18.33;;;;;;;5.91;52.22;100816.47;124142;1099;108298;-79
2022/03/25 07:05:00;;;;;;;38.80;18.13;;;;;;;5.74;52.80;100828.48;124500;1099;104756;-79
2022/03/25 07:07:31;;;;;;;35.27;17.37;;;;;;;5.62;52.62;100827.73;124544;1099;104294;-79
2022/03/25 07:13:08;;;;;;;34.03;17.73;;;;;;;5.50;52.73;100830.51;124824;1098;119760;-80
2022/03/25 07:15:52;;;;;;;33.33;17.07;;;;;;;5.60;53.39;100838.88;124460;1099;104377;-78
2022/03/25 07:18:28;;;;;;;34.73;17.20;;;;;;;5.65;53.70;100840.05;124408;1099;104242;-81
2022/03/25 07:21:16;;;;;;;37.10;17.53;;;;;;;5.74;52.90;100844.10;124805;1099;104373;-79
2022/03/25 07:24:00;;;;;;;34.77;18.17;;;;;;;5.92;54.11;100844.33;124319;1099;104317;-83
2022/03/25 07:26:51;;;;;;;36.47;17.97;;;;;;;5.98;52.94;100845.52;126072;1098;104265;-82
2022/03/25 07:29:26;;;;;;;30.43;16.50;;;;;;;6.07;53.55;100848.67;124356;1099;104261;-79
2022/03/25 07:32:19;;;;;;;37.20;17.97;;;;;;;6.10;54.27;100854.07;124645;1099;105708;-81
2022/03/25 07:35:06;;;;;;;39.50;19.00;;;;;;;6.06;54.19;100854.68;124876;1102;104245;-79
2022/03/25 07:38:25;;;;;;;36.57;17.67;;;;;;;6.04;53.61;100861.52;124932;1102;104367;-80
2022/03/25 07:41:17;;;;;;;32.03;17.53;;;;;;;6.06;54.84;100863.42;125475;1102;104283;-78
2022/03/25 07:43:57;;;;;;;32.37;16.53;;;;;;;6.04;53.56;100859.80;124878;1102;104350;-78
2022/03/25 07:46:48;;;;;;;34.17;16.57;;;;;;;6.13;53.38;100869.00;124861;1102;104248;-78
2022/03/25 07:49:21;;;;;;;37.48;17.67;;;;;;;6.10;53.95;100873.20;124482;1102;102573;-79
2022/03/25 07:52:05;;;;;;;34.00;17.17;;;;;;;6.05;55.85;100876.36;125435;1102;102962;-82
2022/03/25 07:54:56;;;;;;;34.40;17.77;;;;;;;5.98;55.79;100876.78;125433;1102;104510;-79
2022/03/25 07:57:34;;;;;;;33.70;18.57;;;;;;;5.99;53.92;100876.88;124631;1102;102259;-79
2022/03/25 08:00:25;;;;;;;;;;;;;;;;;;;;;
2022/03/25 08:03:38;;;;;;;33.80;18.23;;;;;;;6.07;54.57;100875.62;125077;1102;104201;-82
2022/03/25 08:06:28;;;;;;;42.67;18.47;;;;;;;6.07;54.33;100877.34;124852;1099;102743;-83
2022/03/25 08:09:08;;;;;;;37.50;17.73;;;;;;;6.04;54.60;100877.15;124843;1099;104347;-82
2022/03/25 08:11:48;;;;;;;33.23;16.63;;;;;;;6.02;54.96;100882.27;124845;1099;104175;-80
2022/03/25 08:14:27;;;;;;;30.87;17.53;;;;;;;5.94;54.96;100888.70;124675;1099;104360;-79
2022/03/25 08:17:12;;;;;;;34.95;18.10;;;;;;;5.86;55.29;100888.23;123921;1099;104305;-79
2022/03/25 08:20:42;;;;;;;34.97;16.80;;;;;;;5.87;57.15;100890.01;124545;1099;104647;-82
2022/03/25 08:28:02;;;;;;;;;;;;;;;;;;;;;
2022/03/25 08:30:54;;;;;;;34.73;17.27;;;;;;;6.30;56.32;100890.02;124475;1099;104689;-80
2022/03/25 08:33:31;;;;;;;34.37;18.10;;;;;;;6.32;57.00;100903.14;124576;1099;104425;-80
2022/03/25 08:36:24;;;;;;;33.93;17.30;;;;;;;6.30;56.87;100909.98;125317;1098;104249;-80
2022/03/25 08:39:44;;;;;;;;;;;;;;;;;;;;;
2022/03/25 08:43:53;;;;;;;;;;;;;;;;;;;;;
2022/03/25 08:46:55;;;;;;;31.77;16.17;;;;;;;6.36;57.53;100915.55;125822;1099;104246;-81
2022/03/25 08:50:12;;;;;;;32.90;18.03;;;;;;;6.36;57.05;100914.63;125026;1102;104439;-80
2022/03/25 08:53:06;;;;;;;;;;;;;;;6.39;56.47;100917.42;123827;1102;104427;-79
2022/03/25 08:55:46;;;;;;;32.43;16.30;;;;;;;6.44;57.30;100922.11;123722;1105;104284;-80
2022/03/25 08:58:32;;;;;;;34.53;17.43;;;;;;;6.53;56.15;100923.45;123161;1102;107951;-80
2022/03/25 09:01:06;;;;;;;35.57;17.27;;;;;;;6.62;56.69;100927.52;123849;1102;104309;-79
2022/03/25 09:03:52;;;;;;;32.83;17.50;;;;;;;6.57;57.20;100926.33;124022;1102;104495;-79
2022/03/25 09:06:45;;;;;;;34.37;18.33;;;;;;;6.56;57.42;100928.84;123974;1106;102186;-81
2022/03/25 09:10:01;;;;;;;;;;;;;;;;;;;;;
2022/03/25 09:13:11;;;;;;;34.37;18.20;;;;;;;6.46;56.87;100938.73;123857;1102;104913;-81
2022/03/25 09:16:09;;;;;;;;;;;;;;;;;;;;;
2022/03/25 09:19:10;;;;;;;31.20;17.02;;;;;;;6.43;57.54;100935.05;124189;1105;112187;-81
2022/03/25 09:22:03;;;;;;;34.50;19.07;;;;;;;6.43;57.54;100943.77;124016;1105;104409;-81
2022/03/25 09:24:39;;;;;;;;;;;;;;;6.56;60.36;100949.70;123747;1102;104354;-79
2022/03/25 09:27:26;;;;;;;33.60;19.00;;;;;;;6.72;58.18;100943.70;123806;1102;104344;-79
2022/03/25 09:30:08;;;;;;;35.43;19.03;;;;;;;6.95;58.13;100939.78;124189;1102;104341;-81
2022/03/25 09:33:04;;;;;;;36.17;17.93;;;;;;;7.20;59.15;100937.77;124293;1102;104412;-80
2022/03/25 09:36:25;;;;;;;33.07;18.60;;;;;;;7.40;58.90;100951.02;125804;1099;104438;-80
2022/03/25 09:39:12;;;;;;;35.83;18.77;;;;;;;7.62;58.64;100953.13;124726;1099;104201;-80
2022/03/25 09:41:58;;;;;;;33.50;18.30;;;;;;;7.68;58.34;100956.08;123700;1102;104584;-82
2022/03/25 09:44:54;;;;;;;31.23;17.30;;;;;;;7.80;57.65;100957.55;123778;1099;104735;-82
2022/03/25 09:50:37;;;;;;;33.47;17.50;;;;;;;7.78;56.96;100954.86;124288;1099;105608;-80
2022/03/25 10:03:17;;;;;;;35.87;16.80;;;;;;;7.77;56.51;100971.34;125171;1102;112456;-82
2022/03/25 10:06:25;;;;;;;;;;;;;;;;;;;;;
2022/03/25 10:09:07;;;;;;;33.30;17.53;;;;;;;8.32;56.24;100972.48;125141;1102;103079;-82
2022/03/25 10:11:42;;;;;;;33.70;18.07;;;;;;;8.56;55.77;100985.98;124949;1102;102919;-79
2022/03/25 10:14:23;;;;;;;33.73;17.70;;;;;;;8.55;54.97;100987.68;124841;1101;102322;-79
2022/03/25 10:20:57;;;;;;;33.00;17.07;;;;;;;8.92;54.71;100996.52;125849;1102;102483;-78
2022/03/25 10:23:46;;;;;;;33.87;17.90;;;;;;;8.93;54.66;100987.86;125799;1102;103454;-80
2022/03/25 10:26:35;;;;;;;30.83;17.40;;;;;;;8.91;54.97;100994.72;125402;1102;104422;-79
2022/03/25 10:29:27;;;;;;;34.07;18.10;;;;;;;8.91;54.27;100994.72;125556;1099;104325;-80
2022/03/25 10:32:09;;;;;;;30.77;16.75;;;;;;;9.00;54.45;101003.03;125082;1099;104165;-80
2022/03/25 10:37:35;;;;;;;32.13;18.90;;;;;;;9.30;53.56;100990.57;125432;1099;104242;-80
2022/03/25 10:44:13;;;;;;;33.70;18.47;;;;;;;9.10;53.44;100992.20;125328;1102;104335;-81
2022/03/25 10:47:01;;;;;;;33.05;18.35;;;;;;;9.18;53.39;100992.59;125387;1101;104230;-81
2022/03/25 10:50:11;;;;;;;35.17;18.10;;;;;;;9.26;53.81;101008.67;125802;1102;102118;-81
2022/03/25 10:53:07;;;;;;;33.33;18.30;;;;;;;9.35;52.78;100996.03;125453;1102;104780;-81
2022/03/25 10:56:01;;;;;;;35.75;19.62;;;;;;;9.56;52.94;100990.02;125228;1102;108145;-78
2022/03/25 10:58:38;;;;;;;33.03;20.00;;;;;;;9.69;53.31;100988.05;125212;1102;104242;-80
2022/03/25 11:01:48;;;;;;;32.80;19.43;;;;;;;9.84;52.76;100997.45;125667;1102;102278;-82
2022/03/25 11:04:45;;;;;;;33.40;20.00;;;;;;;9.80;52.21;100996.42;125332;1102;104267;-81
2022/03/25 11:07:22;;;;;;;35.23;20.00;;;;;;;9.89;52.81;100985.45;125392;1102;104210;-80
2022/03/25 11:10:20;;;;;;;32.07;18.47;;;;;;;10.11;52.51;101000.43;125468;1102;104329;-79
2022/03/25 11:13:28;;;;;;;30.50;17.13;;;;;;;10.46;51.74;100976.66;124583;1102;105190;-81
2022/03/25 11:16:39;;;;;;;;;;;;;;;;;;;;;
2022/03/25 11:19:18;;;;;;;28.43;15.83;;;;;;;10.59;50.65;100986.84;124751;1102;103243;-80
2022/03/25 11:22:07;;;;;;;29.93;16.27;;;;;;;10.59;51.29;100986.84;125628;1099;104194;-82
2022/03/25 11:24:52;;;;;;;26.33;14.87;;;;;;;10.56;50.23;100984.97;126571;1099;102223;-81
2022/03/25 11:27:28;;;;;;;31.90;14.73;;;;;;;10.40;49.87;100988.66;125762;1099;102624;-80
2022/03/25 11:30:09;;;;;;;28.07;14.73;;;;;;;10.37;50.18;101001.64;125223;1099;104214;-80
2022/03/25 11:33:05;;;;;;;26.73;15.13;;;;;;;10.44;50.11;100994.96;125100;1099;104175;-80
2022/03/25 11:35:42;;;;;;;28.63;14.17;;;;;;;10.64;50.54;100987.05;125008;1099;104252;-79
2022/03/25 11:38:22;;;;;;;29.60;14.20;;;;;;;10.82;49.99;100994.83;125052;1099;104368;-80
2022/03/25 11:41:40;;;;;;;27.37;14.53;;;;;;;10.96;49.89;100984.05;125028;1097;103251;-79
2022/03/25 11:44:26;;;;;;;26.17;12.75;;;;;;;11.04;49.06;100981.75;126116;1099;102155;-82
2022/03/25 11:47:41;;;;;;;26.03;13.87;;;;;;;11.10;48.70;100984.62;125573;1099;103142;-79
2022/03/25 11:50:31;;;;;;;27.50;13.83;;;;;;;10.90;48.64;100977.66;125324;1099;105562;-79
2022/03/25 11:53:33;;;;;;;27.00;13.57;;;;;;;10.69;48.13;100993.37;125326;1098;102671;-80
2022/03/25 11:56:09;;;;;;;25.73;13.10;;;;;;;10.41;49.86;101010.56;125808;1098;101951;-79
2022/03/25 11:59:32;;;;;;;;;;;;;;;;;;;;;
2022/03/25 12:03:02;;;;;;;26.73;14.07;;;;;;;9.76;52.15;101022.41;126383;1099;104172;-78
2022/03/25 12:06:50;;;;;;;;;;;;;;;;;;;;;
2022/03/25 12:09:49;;;;;;;25.97;13.07;;;;;;;9.28;52.09;101034.09;125647;1102;108077;-80
2022/03/25 12:13:15;;;;;;;27.83;12.80;;;;;;;9.35;51.37;101014.37;125208;1102;104788;-77
2022/03/25 12:16:02;;;;;;;26.70;14.30;;;;;;;9.51;51.65;101013.37;125791;1102;101837;-80
2022/03/25 12:19:42;;;;;;;;;;;;;;;;;;;;;
2022/03/25 12:23:07;;;;;;;25.93;12.27;;;;;;;9.63;51.53;101015.67;125056;1106;102749;-78
2022/03/25 12:26:03;;;;;;;26.20;12.73;;;;;;;9.77;50.72;101012.00;124838;1106;104067;-78
2022/03/25 12:28:41;;;;;;;25.20;11.93;;;;;;;9.89;50.52;101014.28;125254;1102;104227;-79
2022/03/25 12:31:26;;;;;;;27.32;13.40;;;;;;;10.08;50.26;101019.56;125121;1102;104311;-80
2022/03/25 12:34:08;;;;;;;27.70;13.43;;;;;;;10.13;50.11;101024.10;125327;1103;102303;-79
2022/03/25 12:37:17;;;;;;;26.40;14.13;;;;;;;10.18;50.42;101014.74;125211;1102;103190;-80
2022/03/25 12:44:16;;;;;;;25.60;12.13;;;;;;;10.25;49.73;101024.66;125890;1105;102264;-81
2022/03/25 12:47:11;;;;;;;;;;;;;;;;;;;;;
2022/03/25 12:50:33;;;;;;;24.87;13.40;;;;;;;10.42;49.03;101023.75;125849;1105;101792;-78
2022/03/25 12:56:29;;;;;;;23.90;11.73;;;;;;;10.88;48.69;101013.47;125452;1105;104249;-78
2022/03/25 12:59:29;;;;;;;24.30;12.60;;;;;;;11.02;48.35;101014.05;125700;1105;102329;-78